createdAt,value
2022-11-16T00:01:14.945Z,40.43
2022-11-16T00:03:42.460Z,37.97
2022-11-16T00:06:10.710Z,40.33
2022-11-16T00:08:40.387Z,40.93
2022-11-16T00:11:09.050Z,40.67
2022-11-16T00:13:36.521Z,37.80
2022-11-16T00:16:03.929Z,38.93
2022-11-16T00:18:31.952Z,37.70
2022-11-16T00:20:59.090Z,37.27
2022-11-16T00:23:25.737Z,37.97
2022-11-16T00:25:52.586Z,38.03
2022-11-16T00:28:19.223Z,37.97
2022-11-16T00:30:45.777Z,37.63
2022-11-16T00:33:15.046Z,37.87
2022-11-16T00:35:42.411Z,38.70
2022-11-16T00:38:09.141Z,37.53
2022-11-16T00:40:35.898Z,38.60
2022-11-16T00:43:02.501Z,38.03
2022-11-16T00:45:29.112Z,36.60
2022-11-16T00:48:00.319Z,36.90
2022-11-16T00:50:27.304Z,36.87
2022-11-16T00:52:54.526Z,35.03
2022-11-16T00:55:21.231Z,38.07
2022-11-16T00:57:47.884Z,37.20
2022-11-16T01:00:15.726Z,35.87
2022-11-16T01:02:42.338Z,37.20
2022-11-16T01:05:11.947Z,36.50
2022-11-16T01:07:39.897Z,37.23
2022-11-16T01:10:11.754Z,36.23
2022-11-16T01:12:38.103Z,36.33
2022-11-16T01:15:08.222Z,37.57
2022-11-16T01:17:34.914Z,36.67
2022-11-16T01:20:01.682Z,36.30
2022-11-16T01:22:28.252Z,36.97
2022-11-16T01:24:54.828Z,36.87
2022-11-16T01:27:22.294Z,37.37
2022-11-16T01:29:48.906Z,35.90
2022-11-16T01:32:15.510Z,37.23
2022-11-16T01:34:42.263Z,36.73
2022-11-16T01:37:09.180Z,35.17
2022-11-16T01:39:36.027Z,37.07
2022-11-16T01:42:03.083Z,37.37
2022-11-16T01:44:58.209Z,37.70
2022-11-16T01:47:25.132Z,35.33
2022-11-16T01:49:56.176Z,37.53
2022-11-16T01:52:27.633Z,33.87
2022-11-16T01:54:54.984Z,34.87
2022-11-16T01:57:23.971Z,35.03
2022-11-16T01:59:55.339Z,31.77
2022-11-16T02:02:22.954Z,33.87
2022-11-16T02:04:52.060Z,34.63
2022-11-16T02:07:26.023Z,34.20
2022-11-16T02:10:09.737Z,34.43
2022-11-16T02:12:57.163Z,34.67
2022-11-16T02:15:29.985Z,34.77
2022-11-16T02:18:10.158Z,35.67
2022-11-16T02:20:57.311Z,33.40
2022-11-16T02:24:18.978Z,33.70
2022-11-16T02:27:07.551Z,35.30
2022-11-16T02:29:39.434Z,34.27
2022-11-16T02:32:11.861Z,34.47
2022-11-16T02:34:42.215Z,35.80
2022-11-16T02:37:11.833Z,34.40
2022-11-16T02:39:40.327Z,35.17
2022-11-16T02:42:13.097Z,35.00
2022-11-16T02:44:44.666Z,35.43
2022-11-16T02:47:15.670Z,36.37
2022-11-16T02:49:47.109Z,34.60
2022-11-16T02:52:15.400Z,34.87
2022-11-16T02:54:41.964Z,35.67
2022-11-16T02:57:33.111Z,34.50
2022-11-16T03:00:02.078Z,37.43
2022-11-16T03:02:34.173Z,36.80
2022-11-16T03:05:05.481Z,34.63
2022-11-16T03:07:35.769Z,35.77
2022-11-16T03:10:03.113Z,34.93
2022-11-16T03:12:32.190Z,36.30
2022-11-16T03:15:02.423Z,35.27
2022-11-16T03:17:32.424Z,36.50
2022-11-16T03:20:03.744Z,37.17
2022-11-16T03:22:35.080Z,38.57
2022-11-16T03:25:02.339Z,38.70
2022-11-16T03:27:36.879Z,38.23
2022-11-16T03:30:07.335Z,39.17
2022-11-16T03:32:39.934Z,37.67
2022-11-16T03:35:14.048Z,39.23
2022-11-16T03:37:41.502Z,42.87
2022-11-16T03:40:10.481Z,43.33
2022-11-16T03:42:37.863Z,43.23
2022-11-16T03:45:06.664Z,41.77
2022-11-16T03:47:33.340Z,44.70
2022-11-16T03:49:59.952Z,45.37
2022-11-16T03:52:26.809Z,44.73
2022-11-16T03:54:53.379Z,45.57
2022-11-16T03:57:20.000Z,46.03
2022-11-16T03:59:46.547Z,46.37
2022-11-16T04:02:14.068Z,47.13
2022-11-16T04:04:59.079Z,45.67
2022-11-16T04:07:55.194Z,48.23
2022-11-16T04:10:40.211Z,49.03
2022-11-16T04:13:28.448Z,48.50
2022-11-16T04:16:09.567Z,51.87
2022-11-16T04:18:54.921Z,47.67
2022-11-16T04:21:43.473Z,48.30
2022-11-16T04:24:13.957Z,49.47
2022-11-16T04:27:01.838Z,46.67
2022-11-16T04:29:29.052Z,44.97
2022-11-16T04:32:13.822Z,47.33
2022-11-16T04:34:58.972Z,46.73
2022-11-16T04:37:43.373Z,46.93
2022-11-16T04:40:11.357Z,47.37
2022-11-16T04:42:38.090Z,47.20
2022-11-16T04:45:23.400Z,48.43
2022-11-16T04:47:50.189Z,47.33
2022-11-16T04:50:18.093Z,49.63
2022-11-16T04:52:45.138Z,50.10
2022-11-16T04:55:12.297Z,48.20
2022-11-16T04:57:39.101Z,50.27
2022-11-16T05:00:07.207Z,50.83
2022-11-16T05:02:33.918Z,48.33
2022-11-16T05:05:00.510Z,50.70
2022-11-16T05:07:27.815Z,49.03
2022-11-16T05:09:54.537Z,49.23
2022-11-16T05:12:23.260Z,52.77
2022-11-16T05:14:50.267Z,49.67
2022-11-16T05:17:18.178Z,53.27
2022-11-16T05:20:03.021Z,51.77
2022-11-16T05:22:30.444Z,50.53
2022-11-16T05:24:57.031Z,50.40
2022-11-16T05:27:24.974Z,52.50
2022-11-16T05:29:51.936Z,53.90
2022-11-16T05:32:19.537Z,52.17
2022-11-16T05:34:46.271Z,52.07
2022-11-16T05:37:13.579Z,52.60
2022-11-16T05:39:40.914Z,53.33
2022-11-16T05:42:07.611Z,53.13
2022-11-16T05:44:34.569Z,52.97
2022-11-16T05:47:01.417Z,53.63
2022-11-16T05:49:28.036Z,52.97
2022-11-16T05:51:54.715Z,53.40
2022-11-16T05:54:24.032Z,52.87
2022-11-16T05:56:52.041Z,56.03
2022-11-16T05:59:21.827Z,54.70
2022-11-16T06:01:48.580Z,54.87
2022-11-16T06:04:15.502Z,57.13
2022-11-16T06:06:42.773Z,56.90
2022-11-16T06:09:10.876Z,56.13
2022-11-16T06:11:37.525Z,56.27
2022-11-16T06:14:05.163Z,57.73
2022-11-16T06:16:31.786Z,54.20
2022-11-16T06:18:59.763Z,54.83
2022-11-16T06:21:26.364Z,55.00
2022-11-16T06:23:53.484Z,55.70
2022-11-16T06:26:20.049Z,55.07
2022-11-16T06:28:46.660Z,55.10
2022-11-16T06:31:14.330Z,53.47
2022-11-16T06:33:40.964Z,52.13
2022-11-16T06:36:08.365Z,52.17
2022-11-16T06:38:35.155Z,53.10
2022-11-16T06:41:02.960Z,51.57
2022-11-16T06:43:29.580Z,53.27
2022-11-16T06:45:57.469Z,54.83
2022-11-16T06:48:24.761Z,53.80
2022-11-16T06:50:51.894Z,53.97
2022-11-16T06:53:19.156Z,52.70
2022-11-16T06:55:45.787Z,52.50
2022-11-16T06:58:12.578Z,52.03
2022-11-16T07:00:39.348Z,50.37
2022-11-16T07:03:06.042Z,52.73
2022-11-16T07:05:33.303Z,53.20
2022-11-16T07:08:00.154Z,54.47
2022-11-16T07:10:26.763Z,51.37
2022-11-16T07:12:53.913Z,54.50
2022-11-16T07:15:20.543Z,53.87
2022-11-16T07:17:47.121Z,51.77
2022-11-16T07:20:13.883Z,53.00
2022-11-16T07:22:41.122Z,51.13
2022-11-16T07:25:08.954Z,53.37
2022-11-16T07:27:35.574Z,52.07
2022-11-16T07:30:03.976Z,54.30
2022-11-16T07:32:30.659Z,53.10
2022-11-16T07:34:59.395Z,51.83
2022-11-16T07:37:26.718Z,52.17
2022-11-16T07:39:57.380Z,54.63
2022-11-16T07:42:23.966Z,50.07
2022-11-16T07:44:50.515Z,52.10
2022-11-16T07:47:17.074Z,51.63
2022-11-16T07:49:43.685Z,53.90
2022-11-16T07:52:10.683Z,52.97
2022-11-16T07:54:37.476Z,55.27
2022-11-16T07:57:05.088Z,53.37
2022-11-16T07:59:31.723Z,51.77
2022-11-16T08:01:58.741Z,50.07
2022-11-16T08:04:25.759Z,52.57
2022-11-16T08:06:52.497Z,53.50
2022-11-16T08:09:22.340Z,53.77
2022-11-16T08:11:51.117Z,52.70
2022-11-16T08:14:18.530Z,48.50
2022-11-16T08:16:45.687Z,50.73
2022-11-16T08:19:12.329Z,47.53
2022-11-16T08:21:38.962Z,47.00
2022-11-16T08:24:06.653Z,48.80
2022-11-16T08:26:33.623Z,47.43
2022-11-16T08:29:00.553Z,45.80
2022-11-16T08:31:28.952Z,48.07
2022-11-16T08:33:56.252Z,45.60
2022-11-16T08:36:23.060Z,44.10
2022-11-16T08:38:51.541Z,44.30
2022-11-16T08:41:19.406Z,42.37
2022-11-16T08:43:46.943Z,43.63
2022-11-16T08:46:13.892Z,41.87
2022-11-16T08:48:42.189Z,44.47
2022-11-16T08:51:19.589Z,42.23
2022-11-16T08:53:48.715Z,42.57
2022-11-16T08:56:17.058Z,42.57
2022-11-16T08:58:46.163Z,41.50
2022-11-16T09:01:15.465Z,38.70
2022-11-16T09:03:42.911Z,40.37
2022-11-16T09:06:10.848Z,40.57
2022-11-16T09:08:39.668Z,36.80
2022-11-16T09:11:08.632Z,38.40
2022-11-16T09:13:35.607Z,39.33
2022-11-16T09:16:02.531Z,37.20
2022-11-16T09:18:29.603Z,34.60
2022-11-16T09:20:57.355Z,33.40
2022-11-16T09:23:25.710Z,31.27
2022-11-16T09:25:52.733Z,30.10
2022-11-16T09:28:20.501Z,29.00
2022-11-16T09:30:49.929Z,27.63
2022-11-16T09:33:16.747Z,25.37
2022-11-16T09:35:43.527Z,25.93
2022-11-16T09:38:12.710Z,24.07
2022-11-16T09:40:46.037Z,24.03
2022-11-16T09:43:20.724Z,23.63
2022-11-16T09:45:55.657Z,21.33
2022-11-16T09:48:23.798Z,22.43
2022-11-16T09:50:54.159Z,23.77
2022-11-16T09:53:30.346Z,24.23
2022-11-16T09:56:00.324Z,23.70
2022-11-16T09:58:31.655Z,23.43
2022-11-16T10:01:04.190Z,22.27
2022-11-16T10:03:36.135Z,24.63
2022-11-16T10:06:06.039Z,23.73
2022-11-16T10:08:42.914Z,26.47
2022-11-16T10:11:29.300Z,26.03
2022-11-16T10:14:04.668Z,26.67
2022-11-16T10:16:39.885Z,27.00
2022-11-16T10:19:13.184Z,26.23
2022-11-16T10:21:49.982Z,24.60
2022-11-16T10:24:41.165Z,25.03
2022-11-16T10:27:28.028Z,24.00
2022-11-16T10:30:08.430Z,25.20
2022-11-16T10:32:37.983Z,25.10
2022-11-16T10:35:13.278Z,23.73
2022-11-16T10:37:46.775Z,25.37
2022-11-16T10:40:19.997Z,25.50
2022-11-16T10:42:54.081Z,25.20
2022-11-16T10:45:26.275Z,26.63
2022-11-16T10:48:01.114Z,25.63
2022-11-16T10:50:32.861Z,28.33
2022-11-16T10:53:00.435Z,26.07
2022-11-16T10:55:28.358Z,26.27
2022-11-16T10:57:57.292Z,26.60
2022-11-16T11:00:42.601Z,29.03
2022-11-16T11:03:11.216Z,32.03
2022-11-16T11:05:47.846Z,27.40
2022-11-16T11:08:25.262Z,28.17
2022-11-16T11:11:01.104Z,30.07
2022-11-16T11:13:27.728Z,29.40
2022-11-16T11:16:14.785Z,30.23
2022-11-16T11:18:41.477Z,31.30
2022-11-16T11:21:16.479Z,30.83
2022-11-16T11:23:46.955Z,30.40
2022-11-16T11:26:34.731Z,32.70
2022-11-16T11:29:15.321Z,31.43
2022-11-16T11:31:45.570Z,29.97
2022-11-16T11:34:18.498Z,30.60
2022-11-16T11:36:48.865Z,30.90
2022-11-16T11:39:32.576Z,28.10
2022-11-16T11:42:19.774Z,31.33
2022-11-16T11:44:57.892Z,29.97
2022-11-16T11:47:58.205Z,31.23
2022-11-16T11:50:36.059Z,28.20
2022-11-16T11:53:07.885Z,29.63
2022-11-16T11:55:34.604Z,28.90
2022-11-16T11:58:03.900Z,30.07
2022-11-16T12:00:41.980Z,31.47
2022-11-16T12:03:38.443Z,30.20
2022-11-16T12:06:16.110Z,32.53
2022-11-16T12:09:15.629Z,32.20
2022-11-16T12:11:57.774Z,31.30
2022-11-16T12:14:35.380Z,31.33
2022-11-16T12:17:08.419Z,32.07
2022-11-16T12:19:55.500Z,31.63
2022-11-16T12:22:42.449Z,32.07
2022-11-16T12:25:21.243Z,30.23
2022-11-16T12:28:03.281Z,30.50
2022-11-16T12:30:39.086Z,29.50
2022-11-16T12:33:25.471Z,29.07
2022-11-16T12:35:59.648Z,29.70
2022-11-16T12:38:43.163Z,30.50
2022-11-16T12:41:56.289Z,28.20
2022-11-16T12:44:38.150Z,29.00
2022-11-16T12:47:17.161Z,27.93
2022-11-16T12:50:04.696Z,28.60
2022-11-16T12:52:47.859Z,28.03
2022-11-16T12:55:29.768Z,29.83
2022-11-16T12:58:09.622Z,28.63
2022-11-16T13:00:52.844Z,28.03
2022-11-16T13:03:28.456Z,28.97
2022-11-16T13:05:59.810Z,27.03
2022-11-16T13:08:43.143Z,28.00
2022-11-16T13:11:17.906Z,26.87
2022-11-16T13:13:51.436Z,27.03
2022-11-16T13:16:20.004Z,26.93
2022-11-16T13:18:47.628Z,25.83
2022-11-16T13:21:28.552Z,24.27
2022-11-16T13:24:15.620Z,23.87
2022-11-16T13:26:47.919Z,25.03
2022-11-16T13:29:26.117Z,25.30
2022-11-16T13:31:58.052Z,23.30
2022-11-16T13:34:31.070Z,23.77
2022-11-16T13:36:57.996Z,23.20
2022-11-16T13:40:06.100Z,22.00
2022-11-16T13:42:35.356Z,21.20
2022-11-16T13:45:07.416Z,20.80
2022-11-16T13:47:34.662Z,22.13
2022-11-16T13:50:05.167Z,22.67
2022-11-16T13:53:23.513Z,20.17
2022-11-16T13:55:31.776Z,23.13
2022-11-16T13:58:00.483Z,22.43
2022-11-16T14:00:30.671Z,21.70
2022-11-16T14:03:26.602Z,21.70
2022-11-16T14:05:53.911Z,22.00
2022-11-16T14:08:45.048Z,19.57
2022-11-16T14:11:27.504Z,19.23
2022-11-16T14:13:54.210Z,20.57
2022-11-16T14:16:44.981Z,20.47
2022-11-16T14:19:51.171Z,20.67
2022-11-16T14:22:43.879Z,19.27
2022-11-16T14:25:23.008Z,19.67
2022-11-16T14:27:57.693Z,19.37
2022-11-16T14:30:28.688Z,18.67
2022-11-16T14:32:56.986Z,17.97
2022-11-16T14:35:28.056Z,19.37
2022-11-16T14:37:58.634Z,19.10
2022-11-16T14:40:26.313Z,19.23
2022-11-16T14:45:47.150Z,19.83
2022-11-16T14:48:16.250Z,19.40
2022-11-16T14:50:44.896Z,19.53
2022-11-16T14:53:16.444Z,20.97
2022-11-16T14:55:45.225Z,17.70
2022-11-16T14:58:17.951Z,18.97
2022-11-16T15:00:52.771Z,18.73
2022-11-16T15:03:21.129Z,18.97
2022-11-16T15:05:48.132Z,17.73
2022-11-16T15:08:20.580Z,18.03
2022-11-16T15:10:52.139Z,17.43
2022-11-16T15:13:20.716Z,18.63
2022-11-16T15:15:47.812Z,17.83
2022-11-16T15:18:18.144Z,16.90
2022-11-16T15:20:49.594Z,17.33
2022-11-16T15:23:17.791Z,15.63
2022-11-16T15:25:46.316Z,15.67
2022-11-16T15:28:17.971Z,15.33
2022-11-16T15:30:48.258Z,15.60
2022-11-16T15:33:19.761Z,13.93
2022-11-16T15:35:46.904Z,15.63
2022-11-16T15:38:17.801Z,15.77
2022-11-16T15:40:50.129Z,15.97
2022-11-16T15:43:19.007Z,14.60
2022-11-16T15:45:46.254Z,14.03
2022-11-16T15:48:18.487Z,13.53
2022-11-16T15:51:03.050Z,14.30
2022-11-16T15:53:37.632Z,13.50
2022-11-16T15:56:08.231Z,12.87
2022-11-16T15:58:38.756Z,12.90
2022-11-16T16:01:05.827Z,13.30
2022-11-16T16:03:35.225Z,12.53
2022-11-16T16:06:03.256Z,11.77
2022-11-16T16:08:32.789Z,12.67
2022-11-16T16:11:08.465Z,12.20
2022-11-16T16:13:37.611Z,13.53
2022-11-16T16:16:25.798Z,13.33
2022-11-16T16:18:55.184Z,13.23
2022-11-16T16:21:22.049Z,13.53
2022-11-16T16:23:50.353Z,13.23
2022-11-16T16:26:17.984Z,13.80
2022-11-16T16:28:45.059Z,14.73
2022-11-16T16:31:12.348Z,15.57
2022-11-16T16:33:39.089Z,14.60
2022-11-16T16:36:06.632Z,14.87
2022-11-16T16:38:36.139Z,15.20
2022-11-16T16:41:04.695Z,15.30
2022-11-16T16:43:32.806Z,14.87
2022-11-16T16:46:01.607Z,14.60
2022-11-16T16:48:33.864Z,13.70
2022-11-16T16:51:00.472Z,13.87
2022-11-16T16:53:27.544Z,13.83
2022-11-16T16:55:54.361Z,13.13
2022-11-16T16:58:21.549Z,13.77
2022-11-16T17:00:49.328Z,13.37
2022-11-16T17:03:16.003Z,13.77
2022-11-16T17:05:42.786Z,14.47
2022-11-16T17:08:09.381Z,14.83
2022-11-16T17:10:37.573Z,14.60
2022-11-16T17:13:05.227Z,13.63
2022-11-16T17:15:32.160Z,15.43
2022-11-16T17:17:59.994Z,15.63
2022-11-16T17:20:27.233Z,15.33
2022-11-16T17:22:53.815Z,14.03
2022-11-16T17:25:20.983Z,14.53
2022-11-16T17:27:48.511Z,16.27
2022-11-16T17:30:15.932Z,15.03
2022-11-16T17:32:42.636Z,15.37
2022-11-16T17:35:10.363Z,15.03
2022-11-16T17:37:37.140Z,14.60
2022-11-16T17:40:05.025Z,14.27
2022-11-16T17:42:32.763Z,13.90
2022-11-16T17:44:59.651Z,13.83
2022-11-16T17:47:26.819Z,13.63
2022-11-16T17:49:54.037Z,12.37
2022-11-16T17:52:21.959Z,12.47
2022-11-16T17:54:48.664Z,12.30
2022-11-16T17:57:15.263Z,11.97
2022-11-16T17:59:42.186Z,11.17
2022-11-16T18:02:10.289Z,10.17
2022-11-16T18:04:37.396Z,12.80
2022-11-16T18:07:04.308Z,10.97
2022-11-16T18:09:31.653Z,11.30
2022-11-16T18:12:01.418Z,10.27
2022-11-16T18:14:28.312Z,9.63
2022-11-16T18:16:56.246Z,10.33
2022-11-16T18:19:26.600Z,10.30
2022-11-16T18:21:53.252Z,10.53
2022-11-16T18:24:19.885Z,10.93
2022-11-16T18:26:47.611Z,8.70
2022-11-16T18:29:18.439Z,9.83
2022-11-16T18:31:45.078Z,9.70
2022-11-16T18:34:12.816Z,9.33
2022-11-16T18:36:40.361Z,9.30
2022-11-16T18:39:07.709Z,9.23
2022-11-16T18:41:34.432Z,10.30
2022-11-16T18:44:02.355Z,16.27
2022-11-16T18:46:30.676Z,10.73
2022-11-16T18:48:57.687Z,8.30
2022-11-16T18:51:26.768Z,9.93
2022-11-16T18:53:53.784Z,8.23
2022-11-16T18:56:21.294Z,8.43
2022-11-16T18:58:50.859Z,9.43
2022-11-16T19:01:21.149Z,8.77
2022-11-16T19:03:47.908Z,9.23
2022-11-16T19:06:17.193Z,8.63
2022-11-16T19:08:45.421Z,9.43
2022-11-16T19:11:16.047Z,7.57
2022-11-16T19:13:43.719Z,8.80
2022-11-16T19:16:12.959Z,8.77
2022-11-16T19:18:40.644Z,8.53
2022-11-16T19:21:09.017Z,8.00
2022-11-16T19:23:36.896Z,8.10
2022-11-16T19:26:06.421Z,8.70
2022-11-16T19:28:35.811Z,8.37
2022-11-16T19:31:07.356Z,8.33
2022-11-16T19:33:34.442Z,7.80
2022-11-16T19:36:10.092Z,8.63
2022-11-16T19:38:37.280Z,8.50
2022-11-16T19:41:04.263Z,7.93
2022-11-16T19:43:31.309Z,8.20
2022-11-16T19:46:02.705Z,8.17
2022-11-16T19:48:31.046Z,7.67
2022-11-16T19:51:03.150Z,8.80
2022-11-16T19:53:31.712Z,7.50
2022-11-16T19:55:59.025Z,9.30
2022-11-16T19:58:26.678Z,7.93
2022-11-16T20:00:53.641Z,8.30
2022-11-16T20:03:20.635Z,7.07
2022-11-16T20:05:47.307Z,8.13
2022-11-16T20:08:14.344Z,8.60
2022-11-16T20:10:42.208Z,8.40
2022-11-16T20:13:08.821Z,8.33
2022-11-16T20:15:35.492Z,7.77
2022-11-16T20:18:03.738Z,8.27
2022-11-16T20:20:34.292Z,7.57
2022-11-16T20:23:04.765Z,8.30
2022-11-16T20:25:39.601Z,8.37
2022-11-16T20:28:07.130Z,8.83
2022-11-16T20:30:36.383Z,8.70
2022-11-16T20:33:05.396Z,9.13
2022-11-16T20:35:33.881Z,8.90
2022-11-16T20:38:02.284Z,8.60
2022-11-16T20:40:29.207Z,9.13
2022-11-16T20:42:59.633Z,8.73
2022-11-16T20:45:27.229Z,8.17
2022-11-16T20:47:54.328Z,8.63
2022-11-16T20:50:24.746Z,9.00
2022-11-16T20:52:52.798Z,9.00
2022-11-16T20:55:23.596Z,9.03
2022-11-16T20:57:50.850Z,9.67
2022-11-16T21:00:18.892Z,9.27
2022-11-16T21:02:49.606Z,8.60
2022-11-16T21:05:17.358Z,9.23
2022-11-16T21:07:43.957Z,9.07
2022-11-16T21:10:20.170Z,9.87
2022-11-16T21:13:07.402Z,9.07
2022-11-16T21:15:36.141Z,9.13
2022-11-16T21:18:05.791Z,9.23
2022-11-16T21:20:32.604Z,9.63
2022-11-16T21:22:59.304Z,11.13
2022-11-16T21:25:28.207Z,8.83
2022-11-16T21:27:56.533Z,9.40
2022-11-16T21:30:23.576Z,9.50
2022-11-16T21:32:51.000Z,9.80
2022-11-16T21:35:20.178Z,9.43
2022-11-16T21:37:47.454Z,9.63
2022-11-16T21:40:14.607Z,9.73
2022-11-16T21:42:41.532Z,9.77
2022-11-16T21:45:09.597Z,9.17
2022-11-16T21:47:36.227Z,8.77
2022-11-16T21:52:54.506Z,9.63
2022-11-16T21:55:21.182Z,9.63
2022-11-16T21:57:51.324Z,8.67
2022-11-16T22:00:19.126Z,9.20
2022-11-16T22:02:45.858Z,9.37
2022-11-16T22:05:30.498Z,8.77
2022-11-16T22:08:02.791Z,8.60
2022-11-16T22:10:29.336Z,9.13
2022-11-16T22:12:55.989Z,8.17
2022-11-16T22:15:22.648Z,8.07
2022-11-16T22:17:49.305Z,9.23
2022-11-16T22:20:16.662Z,8.80
2022-11-16T22:22:43.278Z,8.10
2022-11-16T22:25:13.150Z,8.47
2022-11-16T22:27:58.728Z,8.70
2022-11-16T22:30:26.709Z,7.70
2022-11-16T22:32:53.344Z,8.23
2022-11-16T22:35:20.001Z,8.70
2022-11-16T22:37:46.638Z,8.40
2022-11-16T22:40:17.775Z,9.03
2022-11-16T22:42:45.564Z,8.80
2022-11-16T22:45:12.195Z,9.17
2022-11-16T22:47:38.816Z,9.43
2022-11-16T22:50:06.176Z,9.10
2022-11-16T22:52:33.937Z,9.07
2022-11-16T22:55:00.522Z,9.07
2022-11-16T22:57:27.775Z,9.87
2022-11-16T22:59:54.649Z,9.93
2022-11-16T23:02:21.458Z,10.27
2022-11-16T23:04:49.223Z,10.20
2022-11-16T23:07:16.065Z,10.43
2022-11-16T23:09:43.309Z,9.63
2022-11-16T23:12:28.270Z,10.90
2022-11-16T23:15:13.675Z,10.80
2022-11-16T23:17:40.926Z,11.00
2022-11-16T23:20:27.816Z,10.53
2022-11-16T23:23:12.374Z,11.80
2022-11-16T23:25:57.587Z,10.07
2022-11-16T23:28:24.658Z,10.73
2022-11-16T23:30:52.024Z,11.50
2022-11-16T23:33:39.805Z,10.77
2022-11-16T23:36:07.026Z,9.37
2022-11-16T23:38:33.858Z,11.17
2022-11-16T23:41:21.386Z,10.57
2022-11-16T23:43:59.677Z,10.63
2022-11-16T23:46:28.471Z,9.73
2022-11-16T23:48:55.319Z,10.53
2022-11-16T23:51:23.018Z,9.83
2022-11-16T23:53:50.473Z,10.70
2022-11-16T23:56:17.285Z,10.27
2022-11-16T23:58:43.867Z,10.63
